createdAt,value
2022-11-04T00:01:49.576Z,15.49
2022-11-04T00:04:18.559Z,15.43
2022-11-04T00:06:44.999Z,15.36
2022-11-04T00:09:15.525Z,15.29
2022-11-04T00:12:00.704Z,15.34
2022-11-04T00:14:29.251Z,15.41
2022-11-04T00:17:14.706Z,15.43
2022-11-04T00:19:59.811Z,15.32
2022-11-04T00:22:44.906Z,15.31
2022-11-04T00:25:30.238Z,15.34
2022-11-04T00:28:28.015Z,15.31
2022-11-04T00:30:56.077Z,15.30
2022-11-04T00:33:25.907Z,15.27
2022-11-04T00:35:54.667Z,15.24
2022-11-04T00:38:21.186Z,15.21
2022-11-04T00:40:47.555Z,15.06
2022-11-04T00:43:14.052Z,15.16
2022-11-04T00:45:42.164Z,15.21
2022-11-04T00:48:09.144Z,15.11
2022-11-04T00:50:36.061Z,15.17
2022-11-04T00:53:03.546Z,15.11
2022-11-04T00:55:30.004Z,15.17
2022-11-04T00:57:58.101Z,15.26
2022-11-04T01:00:24.487Z,15.38
2022-11-04T01:02:50.961Z,15.49
2022-11-04T01:05:17.468Z,15.47
2022-11-04T01:07:44.071Z,15.44
2022-11-04T01:10:11.050Z,15.44
2022-11-04T01:12:37.457Z,15.36
2022-11-04T01:15:04.079Z,15.45
2022-11-04T01:17:30.562Z,15.37
2022-11-04T01:19:57.007Z,15.37
2022-11-04T01:22:23.456Z,15.41
2022-11-04T01:24:49.842Z,15.33
2022-11-04T01:27:16.271Z,15.32
2022-11-04T01:29:42.695Z,15.40
2022-11-04T01:32:09.095Z,15.38
2022-11-04T01:34:40.625Z,15.50
2022-11-04T01:37:09.849Z,15.55
2022-11-04T01:39:36.365Z,15.40
2022-11-04T01:44:48.661Z,15.32
2022-11-04T01:47:18.701Z,15.33
2022-11-04T01:49:58.094Z,15.30
2022-11-04T01:52:34.312Z,15.28
2022-11-04T01:55:05.623Z,15.37
2022-11-04T01:57:40.912Z,15.41
2022-11-04T02:00:09.446Z,15.42
2022-11-04T02:02:43.595Z,15.36
2022-11-04T02:05:10.730Z,15.29
2022-11-04T02:07:37.752Z,15.36
2022-11-04T02:10:04.523Z,15.31
2022-11-04T02:12:49.653Z,15.36
2022-11-04T02:15:24.785Z,15.35
2022-11-04T02:18:14.266Z,15.34
2022-11-04T02:20:59.482Z,15.28
2022-11-04T02:23:36.671Z,15.21
2022-11-04T02:26:37.519Z,15.25
2022-11-04T02:29:22.811Z,15.21
2022-11-04T02:31:59.352Z,15.21
2022-11-04T02:34:49.603Z,15.22
2022-11-04T02:37:25.327Z,15.10
2022-11-04T02:39:59.360Z,15.02
2022-11-04T02:42:31.875Z,15.03
2022-11-04T02:45:15.187Z,14.94
2022-11-04T02:47:45.560Z,14.88
2022-11-04T02:50:23.527Z,14.94
2022-11-04T02:53:01.095Z,14.94
2022-11-04T02:55:32.946Z,14.96
2022-11-04T02:58:00.508Z,14.84
2022-11-04T03:00:27.785Z,14.85
2022-11-04T03:03:07.803Z,14.88
2022-11-04T03:05:37.207Z,14.79
2022-11-04T03:08:12.007Z,14.74
2022-11-04T03:10:42.813Z,14.66
2022-11-04T03:13:14.541Z,14.72
2022-11-04T03:15:46.164Z,14.74
2022-11-04T03:18:16.039Z,14.66
2022-11-04T03:20:43.472Z,14.77
2022-11-04T03:23:11.046Z,14.82
2022-11-04T03:25:40.839Z,14.89
2022-11-04T03:28:45.770Z,14.86
2022-11-04T03:31:20.293Z,14.65
2022-11-04T03:33:49.854Z,14.69
2022-11-04T03:36:16.671Z,14.72
2022-11-04T03:38:43.402Z,14.70
2022-11-04T03:41:15.869Z,14.67
2022-11-04T03:43:42.920Z,14.55
2022-11-04T03:46:09.395Z,14.52
2022-11-04T03:48:35.856Z,14.46
2022-11-04T03:51:02.319Z,14.42
2022-11-04T03:53:29.207Z,14.46
2022-11-04T03:56:09.137Z,14.47
2022-11-04T03:58:47.529Z,14.26
2022-11-04T04:01:50.632Z,14.29
2022-11-04T04:04:28.676Z,14.32
2022-11-04T04:07:01.152Z,14.13
2022-11-04T04:09:51.056Z,14.15
2022-11-04T04:12:27.412Z,14.16
2022-11-04T04:15:00.800Z,14.18
2022-11-04T04:17:35.855Z,14.13
2022-11-04T04:20:06.839Z,14.08
2022-11-04T04:22:46.935Z,14.15
2022-11-04T04:25:32.989Z,14.03
2022-11-04T04:28:00.321Z,14.00
2022-11-04T04:30:26.886Z,14.01
2022-11-04T04:32:59.753Z,14.12
2022-11-04T04:35:43.797Z,14.26
2022-11-04T04:38:45.818Z,14.27
2022-11-04T04:41:39.967Z,14.29
2022-11-04T04:44:42.666Z,14.22
2022-11-04T04:47:10.176Z,14.09
2022-11-04T04:49:36.745Z,14.09
2022-11-04T04:52:04.778Z,14.09
2022-11-04T04:54:31.186Z,14.18
2022-11-04T04:56:57.563Z,14.22
2022-11-04T04:59:24.144Z,14.28
2022-11-04T05:01:50.722Z,14.30
2022-11-04T05:04:17.176Z,14.48
2022-11-04T05:06:43.687Z,14.46
2022-11-04T05:09:10.112Z,14.45
2022-11-04T05:11:36.612Z,14.23
2022-11-04T05:14:02.995Z,14.25
2022-11-04T05:16:29.609Z,14.25
2022-11-04T05:18:56.008Z,14.14
2022-11-04T05:21:23.146Z,14.15
2022-11-04T05:23:49.840Z,14.05
2022-11-04T05:26:16.321Z,14.13
2022-11-04T05:28:42.720Z,14.02
2022-11-04T05:31:09.484Z,14.07
2022-11-04T05:33:35.885Z,14.04
2022-11-04T05:36:14.546Z,14.11
2022-11-04T05:38:41.813Z,14.01
2022-11-04T05:41:10.748Z,14.02
2022-11-04T05:43:37.657Z,14.00
2022-11-04T05:46:04.146Z,13.94
2022-11-04T05:48:30.652Z,14.11
2022-11-04T05:50:57.066Z,14.18
2022-11-04T05:53:23.577Z,14.14
2022-11-04T05:55:50.055Z,14.25
2022-11-04T05:58:18.066Z,14.31
2022-11-04T06:00:44.693Z,14.35
2022-11-04T06:03:13.746Z,14.34
2022-11-04T06:05:42.743Z,14.42
2022-11-04T06:08:09.350Z,14.38
2022-11-04T06:10:36.043Z,14.34
2022-11-04T06:13:02.591Z,14.28
2022-11-04T06:15:29.006Z,14.29
2022-11-04T06:17:55.593Z,14.37
2022-11-04T06:20:22.055Z,14.35
2022-11-04T06:22:48.423Z,14.45
2022-11-04T06:25:15.025Z,14.55
2022-11-04T06:27:41.400Z,14.53
2022-11-04T06:30:08.480Z,14.49
2022-11-04T06:32:34.856Z,14.38
2022-11-04T06:35:01.617Z,14.39
2022-11-04T06:37:28.128Z,14.50
2022-11-04T06:39:54.534Z,14.35
2022-11-04T06:42:20.993Z,14.46
2022-11-04T06:44:47.392Z,14.39
2022-11-04T06:47:13.796Z,14.43
2022-11-04T06:49:40.333Z,14.46
2022-11-04T06:52:06.944Z,14.36
2022-11-04T06:54:33.595Z,14.49
2022-11-04T06:57:00.009Z,14.52
2022-11-04T06:59:26.489Z,14.38
2022-11-04T07:01:53.084Z,14.37
2022-11-04T07:04:19.762Z,14.37
2022-11-04T07:06:46.586Z,14.41
2022-11-04T07:09:15.587Z,14.41
2022-11-04T07:11:43.581Z,14.36
2022-11-04T07:14:10.628Z,14.52
2022-11-04T07:16:37.083Z,14.34
2022-11-04T07:19:03.967Z,14.43
2022-11-04T07:21:30.590Z,14.44
2022-11-04T07:23:57.146Z,14.51
2022-11-04T07:26:23.569Z,14.55
2022-11-04T07:28:50.637Z,14.51
2022-11-04T07:31:18.053Z,14.65
2022-11-04T07:33:49.648Z,14.62
2022-11-04T07:36:17.100Z,14.63
2022-11-04T07:38:43.580Z,14.67
2022-11-04T07:41:09.960Z,14.61
2022-11-04T07:43:36.358Z,14.57
2022-11-04T07:46:08.080Z,14.60
2022-11-04T07:48:36.626Z,14.58
2022-11-04T07:51:04.285Z,14.65
2022-11-04T07:53:31.152Z,14.67
2022-11-04T07:55:58.198Z,14.65
2022-11-04T07:58:25.672Z,14.63
2022-11-04T08:00:58.326Z,14.64
2022-11-04T08:03:24.773Z,14.80
2022-11-04T08:05:58.940Z,14.84
2022-11-04T08:08:26.048Z,14.73
2022-11-04T08:11:17.111Z,14.69
2022-11-04T08:13:45.166Z,14.70
2022-11-04T08:16:14.297Z,14.78
2022-11-04T08:18:41.328Z,14.87
2022-11-04T08:21:07.945Z,14.85
2022-11-04T08:23:34.722Z,14.92
2022-11-04T08:26:01.375Z,14.87
2022-11-04T08:28:29.494Z,14.90
2022-11-04T08:30:59.808Z,14.94
2022-11-04T08:33:27.287Z,14.85
2022-11-04T08:35:54.972Z,14.86
2022-11-04T08:38:21.607Z,14.97
2022-11-04T08:40:48.469Z,14.99
2022-11-04T08:43:14.905Z,15.05
2022-11-04T08:45:43.260Z,15.21
2022-11-04T08:48:10.112Z,15.37
2022-11-04T08:50:36.946Z,15.49
2022-11-04T08:53:04.172Z,15.59
2022-11-04T08:55:30.994Z,15.60
2022-11-04T08:57:58.155Z,15.67
2022-11-04T09:00:25.458Z,15.86
2022-11-04T09:02:51.910Z,15.89
2022-11-04T09:05:18.837Z,15.83
2022-11-04T09:07:45.221Z,15.96
2022-11-04T09:10:11.724Z,16.03
2022-11-04T09:12:38.169Z,16.28
2022-11-04T09:15:05.928Z,16.45
2022-11-04T09:17:32.352Z,16.52
2022-11-04T09:19:58.998Z,16.44
2022-11-04T09:22:25.472Z,16.56
2022-11-04T09:24:51.929Z,16.42
2022-11-04T09:27:18.306Z,16.35
2022-11-04T09:29:44.755Z,16.33
2022-11-04T09:32:11.135Z,16.33
2022-11-04T09:34:38.896Z,16.34
2022-11-04T09:37:05.861Z,16.38
2022-11-04T09:39:32.331Z,16.61
2022-11-04T09:42:40.205Z,16.58
2022-11-04T09:45:21.646Z,16.51
2022-11-04T09:47:50.417Z,16.71
2022-11-04T09:50:23.225Z,16.55
2022-11-04T09:52:55.492Z,16.64
2022-11-04T09:55:28.736Z,16.80
2022-11-04T09:57:58.157Z,16.78
2022-11-04T10:00:25.675Z,16.93
2022-11-04T10:03:07.578Z,17.03
2022-11-04T10:05:40.480Z,17.20
2022-11-04T10:08:21.718Z,17.13
2022-11-04T10:11:06.662Z,17.03
2022-11-04T10:13:55.101Z,16.95
2022-11-04T10:16:35.378Z,16.83
2022-11-04T10:19:26.118Z,17.16
2022-11-04T10:21:55.450Z,17.25
2022-11-04T10:24:36.969Z,17.37
2022-11-04T10:27:04.685Z,17.40
2022-11-04T10:29:35.947Z,17.15
2022-11-04T10:32:06.986Z,17.25
2022-11-04T10:34:44.301Z,17.41
2022-11-04T10:37:12.687Z,17.30
2022-11-04T10:39:47.012Z,17.06
2022-11-04T10:42:17.187Z,16.95
2022-11-04T10:44:43.903Z,17.07
2022-11-04T10:47:35.333Z,17.17
2022-11-04T10:50:29.877Z,17.32
2022-11-04T10:53:12.618Z,17.61
2022-11-04T10:55:45.153Z,17.93
2022-11-04T10:58:17.377Z,17.91
2022-11-04T11:00:43.872Z,18.04
2022-11-04T11:03:25.621Z,18.18
2022-11-04T11:05:53.015Z,18.45
2022-11-04T11:08:31.417Z,18.27
2022-11-04T11:10:57.879Z,18.39
2022-11-04T11:13:29.937Z,18.49
2022-11-04T11:16:20.469Z,18.55
2022-11-04T11:19:17.629Z,18.37
2022-11-04T11:21:49.396Z,18.47
2022-11-04T11:24:24.095Z,18.46
2022-11-04T11:26:53.302Z,18.51
2022-11-04T11:29:23.790Z,18.27
2022-11-04T11:31:52.027Z,18.14
2022-11-04T11:34:21.911Z,17.97
2022-11-04T11:36:49.608Z,18.19
2022-11-04T11:39:22.065Z,18.22
2022-11-04T11:41:57.054Z,18.30
2022-11-04T11:44:31.483Z,18.47
2022-11-04T11:47:01.766Z,18.23
2022-11-04T11:49:31.109Z,18.29
2022-11-04T11:52:31.656Z,18.14
2022-11-04T11:55:04.759Z,17.60
2022-11-04T12:00:48.597Z,16.90
2022-11-04T12:03:31.176Z,16.82
2022-11-04T12:09:53.325Z,16.97
2022-11-04T12:12:28.441Z,17.30
2022-11-04T12:15:25.816Z,17.48
2022-11-04T12:18:28.305Z,17.53
2022-11-04T12:21:08.874Z,17.18
2022-11-04T12:23:56.407Z,17.22
2022-11-04T12:26:50.777Z,17.18
2022-11-04T12:29:41.302Z,16.94
2022-11-04T12:32:18.929Z,16.90
2022-11-04T12:35:16.955Z,16.83
2022-11-04T12:37:52.700Z,16.82
2022-11-04T12:40:28.587Z,16.94
2022-11-04T12:43:12.333Z,16.96
2022-11-04T12:45:46.772Z,16.91
2022-11-04T12:48:44.578Z,17.14
2022-11-04T12:51:16.419Z,17.16
2022-11-04T12:54:08.706Z,17.15
2022-11-04T12:56:39.508Z,17.04
2022-11-04T12:59:24.194Z,17.05
2022-11-04T13:01:54.697Z,16.92
2022-11-04T13:04:24.352Z,16.92
2022-11-04T13:06:58.521Z,17.07
2022-11-04T13:09:34.377Z,17.17
2022-11-04T13:12:10.383Z,17.17
2022-11-04T13:14:47.577Z,17.13
2022-11-04T13:17:17.246Z,16.98
2022-11-04T13:19:46.878Z,16.95
2022-11-04T13:22:19.443Z,16.89
2022-11-04T13:25:15.161Z,17.08
2022-11-04T13:27:45.589Z,16.86
2022-11-04T13:30:25.715Z,16.95
2022-11-04T13:33:13.406Z,17.13
2022-11-04T13:35:55.020Z,17.24
2022-11-04T13:38:25.793Z,17.32
2022-11-04T13:41:21.265Z,17.28
2022-11-04T13:43:52.124Z,17.18
2022-11-04T13:46:24.096Z,17.35
2022-11-04T13:49:30.166Z,17.32
2022-11-04T13:52:11.599Z,16.94
2022-11-04T13:54:41.989Z,16.78
2022-11-04T13:57:22.767Z,16.99
2022-11-04T14:00:19.861Z,17.15
2022-11-04T14:02:47.883Z,17.34
2022-11-04T14:05:29.859Z,17.43
2022-11-04T14:08:02.238Z,17.44
2022-11-04T14:10:50.860Z,17.36
2022-11-04T14:13:29.832Z,17.30
2022-11-04T14:15:59.140Z,17.26
2022-11-04T14:18:34.069Z,17.31
2022-11-04T14:21:22.911Z,17.36
2022-11-04T14:23:57.393Z,17.42
2022-11-04T14:26:27.750Z,17.44
2022-11-04T14:29:15.730Z,17.65
2022-11-04T14:31:46.809Z,17.63
2022-11-04T14:34:44.506Z,17.52
2022-11-04T14:37:22.356Z,17.60
2022-11-04T14:39:56.412Z,17.68
2022-11-04T14:42:48.610Z,17.66
2022-11-04T14:45:38.705Z,17.58
2022-11-04T14:48:16.336Z,17.50
2022-11-04T14:50:45.352Z,17.37
2022-11-04T14:53:22.519Z,17.23
2022-11-04T14:56:03.156Z,17.09
2022-11-04T14:58:29.611Z,16.95
2022-11-04T15:00:58.926Z,16.86
2022-11-04T15:04:09.284Z,16.81
2022-11-04T15:06:14.537Z,16.61
2022-11-04T15:08:40.824Z,16.49
2022-11-04T15:11:15.565Z,16.58
2022-11-04T15:13:43.406Z,16.60
2022-11-04T15:16:15.971Z,16.50
2022-11-04T15:18:42.652Z,16.31
2022-11-04T15:21:10.416Z,16.42
2022-11-04T15:23:41.976Z,16.41
2022-11-04T15:26:18.401Z,16.32
2022-11-04T15:28:48.458Z,16.34
2022-11-04T15:31:26.404Z,16.29
2022-11-04T15:33:54.787Z,16.22
2022-11-04T15:36:42.963Z,16.11
2022-11-04T15:39:26.298Z,15.94
2022-11-04T15:42:15.786Z,15.96
2022-11-04T15:44:47.498Z,15.88
2022-11-04T15:47:34.166Z,15.73
2022-11-04T15:50:16.612Z,15.63
2022-11-04T15:52:50.009Z,15.58
2022-11-04T15:55:24.759Z,15.51
2022-11-04T15:57:51.712Z,15.34
2022-11-04T16:00:18.037Z,15.16
2022-11-04T16:02:57.410Z,15.07
2022-11-04T16:05:27.899Z,15.05
2022-11-04T16:07:56.051Z,14.94
2022-11-04T16:10:31.588Z,14.90
2022-11-04T16:13:01.868Z,14.87
2022-11-04T16:15:47.181Z,14.94
2022-11-04T16:18:34.899Z,14.88
2022-11-04T16:21:06.001Z,14.86
2022-11-04T16:23:32.964Z,14.85
2022-11-04T16:26:06.025Z,14.83
2022-11-04T16:28:37.730Z,14.87
2022-11-04T16:31:07.047Z,14.90
2022-11-04T16:33:33.545Z,14.81
2022-11-04T16:36:00.054Z,14.82
2022-11-04T16:38:26.606Z,14.88
2022-11-04T16:40:53.145Z,14.84
2022-11-04T16:43:21.102Z,14.79
2022-11-04T16:45:53.585Z,14.73
2022-11-04T16:48:20.988Z,14.65
2022-11-04T16:50:48.877Z,14.62
2022-11-04T16:53:15.269Z,14.58
2022-11-04T16:55:42.524Z,14.48
2022-11-04T16:58:16.042Z,14.38
2022-11-04T17:00:42.511Z,14.38
2022-11-04T17:03:21.105Z,14.31
2022-11-04T17:05:56.574Z,14.27
2022-11-04T17:08:24.172Z,14.20
2022-11-04T17:10:50.749Z,14.15
2022-11-04T17:13:17.132Z,14.09
2022-11-04T17:15:43.607Z,13.95
2022-11-04T17:18:14.613Z,14.11
2022-11-04T17:20:42.580Z,14.03
2022-11-04T17:23:13.124Z,13.97
2022-11-04T17:25:40.156Z,14.08
2022-11-04T17:28:06.867Z,14.08
2022-11-04T17:30:33.328Z,13.90
2022-11-04T17:33:00.136Z,13.86
2022-11-04T17:35:26.749Z,13.71
2022-11-04T17:37:54.167Z,13.66
2022-11-04T17:40:22.471Z,13.58
2022-11-04T17:43:11.890Z,13.55
2022-11-04T17:45:40.820Z,13.52
2022-11-04T17:48:08.022Z,13.49
2022-11-04T17:50:34.759Z,13.42
2022-11-04T17:53:01.179Z,13.39
2022-11-04T17:55:28.031Z,13.28
2022-11-04T17:57:54.992Z,13.16
2022-11-04T18:00:24.263Z,13.09
2022-11-04T18:02:50.851Z,12.99
2022-11-04T18:05:17.472Z,12.93
2022-11-04T18:07:43.887Z,12.88
2022-11-04T18:10:11.359Z,12.73
2022-11-04T18:12:37.789Z,12.59
2022-11-04T18:15:17.057Z,12.54
2022-11-04T18:17:44.865Z,12.52
2022-11-04T18:20:15.136Z,12.45
2022-11-04T18:22:42.763Z,12.37
2022-11-04T18:25:10.262Z,12.30
2022-11-04T18:27:36.789Z,12.30
2022-11-04T18:30:03.727Z,12.19
2022-11-04T18:32:30.164Z,12.18
2022-11-04T18:34:56.551Z,12.28
2022-11-04T18:37:23.900Z,12.31
2022-11-04T18:39:50.481Z,12.16
2022-11-04T18:42:16.902Z,12.19
2022-11-04T18:44:43.307Z,12.21
2022-11-04T18:47:09.837Z,12.18
2022-11-04T18:49:39.063Z,12.14
2022-11-04T18:52:05.723Z,12.10
2022-11-04T18:54:32.198Z,12.10
2022-11-04T18:56:58.587Z,12.06
2022-11-04T18:59:25.016Z,12.03
2022-11-04T19:01:53.154Z,11.97
2022-11-04T19:04:19.819Z,11.96
2022-11-04T19:06:46.696Z,11.94
2022-11-04T19:12:20.439Z,11.92
2022-11-04T19:14:46.823Z,11.88
2022-11-04T19:17:13.353Z,11.85
2022-11-04T19:19:40.189Z,11.82
2022-11-04T19:22:07.048Z,11.73
2022-11-04T19:24:33.497Z,11.63
2022-11-04T19:26:59.957Z,11.58
2022-11-04T19:29:26.458Z,11.62
2022-11-04T19:31:52.944Z,11.59
2022-11-04T19:34:19.366Z,11.46
2022-11-04T19:36:45.887Z,11.46
2022-11-04T19:39:12.394Z,11.44
2022-11-04T19:41:57.545Z,11.42
2022-11-04T19:44:23.920Z,11.36
2022-11-04T19:46:50.845Z,11.24
2022-11-04T19:49:17.787Z,11.27
2022-11-04T19:51:44.476Z,11.12
2022-11-04T19:54:11.329Z,11.04
2022-11-04T19:56:38.249Z,10.91
2022-11-04T19:59:06.573Z,10.91
2022-11-04T20:01:34.795Z,10.79
2022-11-04T20:04:02.729Z,10.76
2022-11-04T20:06:29.530Z,10.71
2022-11-04T20:08:55.908Z,10.64
2022-11-04T20:11:23.047Z,10.63
2022-11-04T20:13:49.469Z,10.56
2022-11-04T20:16:21.816Z,10.52
2022-11-04T20:18:51.246Z,10.54
2022-11-04T20:21:19.385Z,10.46
2022-11-04T20:23:45.796Z,10.50
2022-11-04T20:26:20.268Z,10.52
2022-11-04T20:28:47.606Z,10.51
2022-11-04T20:31:19.958Z,10.47
2022-11-04T20:33:47.834Z,10.47
2022-11-04T20:36:15.705Z,10.41
2022-11-04T20:38:42.341Z,10.40
2022-11-04T20:41:10.980Z,10.39
2022-11-04T20:43:38.181Z,10.35
2022-11-04T20:46:11.302Z,10.35
2022-11-04T20:48:38.287Z,10.42
2022-11-04T20:51:06.455Z,10.50
2022-11-04T20:53:33.019Z,10.58
2022-11-04T20:55:59.969Z,10.63
2022-11-04T20:58:26.390Z,10.64
2022-11-04T21:00:53.420Z,10.60
2022-11-04T21:03:20.929Z,10.65
2022-11-04T21:05:47.314Z,10.65
2022-11-04T21:08:13.920Z,10.55
2022-11-04T21:10:40.467Z,10.57
2022-11-04T21:13:06.860Z,10.65
2022-11-04T21:15:42.216Z,10.68
2022-11-04T21:18:09.867Z,10.71
2022-11-04T21:20:39.631Z,10.70
2022-11-04T21:23:06.546Z,10.72
2022-11-04T21:25:39.744Z,10.74
2022-11-04T21:28:06.288Z,10.70
2022-11-04T21:30:37.958Z,10.61
2022-11-04T21:33:04.817Z,10.65
2022-11-04T21:35:34.440Z,10.59
2022-11-04T21:38:01.443Z,10.70
2022-11-04T21:40:28.119Z,10.75
2022-11-04T21:42:54.482Z,10.74
2022-11-04T21:45:20.939Z,10.79
2022-11-04T21:47:47.326Z,10.88
2022-11-04T21:50:17.813Z,10.81
2022-11-04T21:52:45.006Z,10.80
2022-11-04T21:55:11.948Z,10.84
2022-11-04T21:57:38.691Z,10.85
2022-11-04T22:00:06.861Z,10.80
2022-11-04T22:02:38.964Z,10.73
2022-11-04T22:05:06.436Z,10.54
2022-11-04T22:07:51.790Z,10.41
2022-11-04T22:10:18.384Z,10.54
2022-11-04T22:12:50.968Z,10.45
2022-11-04T22:15:39.567Z,10.42
2022-11-04T22:18:06.754Z,10.41
2022-11-04T22:20:35.312Z,10.39
2022-11-04T22:23:01.929Z,10.33
2022-11-04T22:25:29.976Z,10.27
2022-11-04T22:27:56.527Z,10.22
2022-11-04T22:30:23.195Z,10.14
2022-11-04T22:32:49.677Z,10.15
2022-11-04T22:35:16.061Z,10.03
2022-11-04T22:37:42.558Z,10.00
2022-11-04T22:40:09.477Z,9.92
2022-11-04T22:42:35.933Z,9.86
2022-11-04T22:45:02.377Z,9.81
2022-11-04T22:47:28.775Z,9.77
2022-11-04T22:49:55.193Z,9.87
2022-11-04T22:52:21.689Z,9.80
2022-11-04T22:54:48.930Z,9.78
2022-11-04T22:57:15.356Z,9.84
2022-11-04T22:59:41.787Z,9.70
2022-11-04T23:02:08.309Z,9.79
2022-11-04T23:04:34.855Z,9.82
2022-11-04T23:07:01.292Z,9.80
2022-11-04T23:09:27.801Z,9.68
2022-11-04T23:12:12.851Z,9.67
2022-11-04T23:14:39.250Z,9.59
2022-11-04T23:17:32.822Z,9.59
2022-11-04T23:19:59.374Z,9.61
2022-11-04T23:22:44.377Z,9.61
2022-11-04T23:25:11.140Z,9.58
2022-11-04T23:28:02.504Z,9.59
2022-11-04T23:30:33.037Z,9.62
2022-11-04T23:33:05.943Z,9.68
2022-11-04T23:35:57.981Z,9.70
2022-11-04T23:38:25.139Z,9.72
2022-11-04T23:41:13.691Z,9.72
2022-11-04T23:43:40.154Z,9.71
2022-11-04T23:46:25.100Z,9.68
2022-11-04T23:49:09.813Z,9.54
2022-11-04T23:51:54.606Z,9.52
2022-11-04T23:54:39.655Z,9.41
2022-11-04T23:57:30.359Z,9.44
